DLH011 EDDH-EDDF
Flight info
| Callsign | DLH011 |
|---|---|
| Flight time | 0h 46m |
| Altitude | 30000 |
| Route | AMLUH3B AMLUH M852 DENIX DCT RIMET/N0459F310 T157 KOKEB/N0417F230 T157 KERAX KERAX5D |
| Aircraft | A320/M-SDE3FGHIRWY/LB1 |
Departure
| Time | 2026-04-18 08:30 |
|---|---|
| Airport | Hamburg Helmut Schmidt Airport (EDDH) |
Arrival
| Time | 2026-04-18 09:16 |
|---|---|
| Airport | Frankfurt Main Airport (EDDF) |
| Time | Latitude | Longitude | Altitude | Speed | Heading |
|---|---|---|---|---|---|
| 2026-04-18 08:00 | 53.63112 | 10.00369 | 49 ft | 0 kts | 87° |
| 2026-04-18 08:23 | 53.63112 | 10.00367 | 48 ft | 2 kts | 87° |
| 2026-04-18 08:23 | 53.63110 | 10.00324 | 46 ft | 4 kts | 87° |
| 2026-04-18 08:23 | 53.63109 | 10.00281 | 44 ft | 4 kts | 66° |
| 2026-04-18 08:23 | 53.63095 | 10.00262 | 48 ft | 2 kts | 356° |
| 2026-04-18 08:24 | 53.63077 | 10.00264 | 48 ft | 1 kts | 356° |
| 2026-04-18 08:27 | 53.63124 | 10.00258 | 48 ft | 10 kts | 355° |
| 2026-04-18 08:27 | 53.63189 | 10.00249 | 48 ft | 10 kts | 355° |
| 2026-04-18 08:27 | 53.63253 | 10.00241 | 48 ft | 9 kts | 355° |
| 2026-04-18 08:27 | 53.63312 | 10.00234 | 48 ft | 12 kts | 355° |
| 2026-04-18 08:28 | 53.63399 | 10.00205 | 47 ft | 12 kts | 334° |
| 2026-04-18 08:28 | 53.63466 | 10.00129 | 48 ft | 11 kts | 322° |
| 2026-04-18 08:28 | 53.63519 | 10.00055 | 50 ft | 9 kts | 320° |
| 2026-04-18 08:28 | 53.63583 | 9.99943 | 52 ft | 11 kts | 280° |
| 2026-04-18 08:29 | 53.63527 | 9.99814 | 50 ft | 24 kts | 230° |
| 2026-04-18 08:29 | 53.63254 | 9.99264 | 47 ft | 96 kts | 230° |
| 2026-04-18 08:29 | 53.62699 | 9.98143 | 43 ft | 151 kts | 230° |
| 2026-04-18 08:29 | 53.61993 | 9.96698 | 548 ft | 157 kts | 228° |
| 2026-04-18 08:30 | 53.61304 | 9.95276 | 1294 ft | 159 kts | 232° |
| 2026-04-18 08:30 | 53.60551 | 9.93727 | 1672 ft | 183 kts | 232° |
| 2026-04-18 08:30 | 53.59692 | 9.91961 | 1948 ft | 205 kts | 232° |
| 2026-04-18 08:30 | 53.58763 | 9.90084 | 2698 ft | 210 kts | 232° |
| 2026-04-18 08:31 | 53.57830 | 9.88186 | 3555 ft | 211 kts | 232° |
| 2026-04-18 08:31 | 53.56765 | 9.86482 | 4362 ft | 216 kts | 207° |
| 2026-04-18 08:31 | 53.55263 | 9.86126 | 4922 ft | 227 kts | 167° |
| 2026-04-18 08:31 | 53.53901 | 9.87492 | 5684 ft | 232 kts | 142° |
| 2026-04-18 08:32 | 53.52684 | 9.89299 | 6502 ft | 236 kts | 136° |
| 2026-04-18 08:32 | 53.51779 | 9.91634 | 7231 ft | 243 kts | 113° |
| 2026-04-18 08:32 | 53.51398 | 9.94520 | 7662 ft | 267 kts | 92° |
| 2026-04-18 08:32 | 53.51382 | 9.97773 | 8098 ft | 287 kts | 91° |
| 2026-04-18 08:33 | 53.51363 | 10.01167 | 8877 ft | 293 kts | 91° |
| 2026-04-18 08:33 | 53.51133 | 10.04574 | 9741 ft | 295 kts | 106° |
| 2026-04-18 08:33 | 53.50366 | 10.07774 | 10469 ft | 300 kts | 118° |
| 2026-04-18 08:33 | 53.49381 | 10.11023 | 10749 ft | 324 kts | 118° |
| 2026-04-18 08:34 | 53.48311 | 10.14509 | 10956 ft | 348 kts | 118° |
| 2026-04-18 08:34 | 53.47172 | 10.18209 | 11301 ft | 363 kts | 118° |
| 2026-04-18 08:34 | 53.46004 | 10.22015 | 11940 ft | 369 kts | 118° |
| 2026-04-18 08:34 | 53.44773 | 10.25824 | 12625 ft | 373 kts | 124° |
| 2026-04-18 08:35 | 53.43158 | 10.29225 | 13318 ft | 375 kts | 136° |
| 2026-04-18 08:35 | 53.41139 | 10.31998 | 13996 ft | 377 kts | 149° |
| 2026-04-18 08:35 | 53.38801 | 10.34001 | 14590 ft | 379 kts | 161° |
| 2026-04-18 08:35 | 53.36262 | 10.35256 | 15179 ft | 382 kts | 167° |
| 2026-04-18 08:36 | 53.34559 | 10.36013 | 15573 ft | 384 kts | 167° |
| 2026-04-18 08:36 | 53.31968 | 10.37166 | 16178 ft | 387 kts | 167° |
| 2026-04-18 08:36 | 53.29357 | 10.38332 | 16776 ft | 391 kts | 167° |
| 2026-04-18 08:36 | 53.26719 | 10.39511 | 17344 ft | 394 kts | 167° |
| 2026-04-18 08:37 | 53.24060 | 10.40696 | 17900 ft | 397 kts | 167° |
| 2026-04-18 08:37 | 53.21376 | 10.41894 | 18461 ft | 401 kts | 167° |
| 2026-04-18 08:37 | 53.18668 | 10.43103 | 18945 ft | 404 kts | 167° |
| 2026-04-18 08:37 | 53.15944 | 10.44316 | 19451 ft | 406 kts | 167° |
| 2026-04-18 08:38 | 53.13173 | 10.45229 | 19926 ft | 406 kts | 176° |
| 2026-04-18 08:38 | 53.10351 | 10.45359 | 20408 ft | 406 kts | 186° |
| 2026-04-18 08:38 | 53.07528 | 10.44972 | 20890 ft | 408 kts | 187° |
| 2026-04-18 08:38 | 53.04694 | 10.44571 | 21367 ft | 410 kts | 187° |
| 2026-04-18 08:39 | 53.01841 | 10.44171 | 21854 ft | 413 kts | 187° |
| 2026-04-18 08:39 | 52.98971 | 10.43773 | 22311 ft | 415 kts | 187° |
| 2026-04-18 08:39 | 52.96086 | 10.43377 | 22777 ft | 417 kts | 187° |
| 2026-04-18 08:39 | 52.93183 | 10.42979 | 23223 ft | 420 kts | 187° |
| 2026-04-18 08:40 | 52.90262 | 10.42582 | 23669 ft | 422 kts | 187° |
| 2026-04-18 08:40 | 52.87326 | 10.42183 | 24038 ft | 425 kts | 187° |
| 2026-04-18 08:40 | 52.84380 | 10.41782 | 24398 ft | 427 kts | 187° |
| 2026-04-18 08:40 | 52.81410 | 10.41378 | 24761 ft | 429 kts | 187° |
| 2026-04-18 08:41 | 52.78433 | 10.40972 | 25105 ft | 431 kts | 187° |
| 2026-04-18 08:41 | 52.75437 | 10.40567 | 25447 ft | 433 kts | 187° |
| 2026-04-18 08:41 | 52.72466 | 10.40166 | 25791 ft | 435 kts | 187° |
| 2026-04-18 08:41 | 52.69441 | 10.39757 | 26139 ft | 437 kts | 187° |
| 2026-04-18 08:42 | 52.66407 | 10.39351 | 26478 ft | 439 kts | 187° |
| 2026-04-18 08:42 | 52.63359 | 10.38943 | 26810 ft | 441 kts | 187° |
| 2026-04-18 08:42 | 52.60293 | 10.38534 | 27125 ft | 442 kts | 187° |
| 2026-04-18 08:42 | 52.57223 | 10.38121 | 27434 ft | 444 kts | 187° |
| 2026-04-18 08:43 | 52.54133 | 10.37706 | 27722 ft | 446 kts | 187° |
| 2026-04-18 08:43 | 52.51032 | 10.37290 | 28000 ft | 449 kts | 187° |
| 2026-04-18 08:43 | 52.47914 | 10.36870 | 28299 ft | 451 kts | 187° |
| 2026-04-18 08:43 | 52.44780 | 10.36450 | 28592 ft | 452 kts | 187° |
| 2026-04-18 08:44 | 52.41645 | 10.36030 | 28985 ft | 452 kts | 187° |
| 2026-04-18 08:44 | 52.38517 | 10.35613 | 29413 ft | 450 kts | 187° |
| 2026-04-18 08:44 | 52.35397 | 10.35199 | 29838 ft | 449 kts | 187° |
| 2026-04-18 08:44 | 52.32285 | 10.34786 | 30264 ft | 448 kts | 187° |
| 2026-04-18 08:45 | 52.29180 | 10.34377 | 30586 ft | 448 kts | 187° |
| 2026-04-18 08:45 | 52.26075 | 10.33967 | 30902 ft | 448 kts | 187° |
| 2026-04-18 08:45 | 52.22969 | 10.33558 | 31234 ft | 447 kts | 187° |
| 2026-04-18 08:45 | 52.19875 | 10.33150 | 31594 ft | 446 kts | 188° |
| 2026-04-18 08:46 | 52.16781 | 10.32741 | 31950 ft | 445 kts | 188° |
| 2026-04-18 08:46 | 52.13704 | 10.32333 | 32301 ft | 444 kts | 188° |
| 2026-04-18 08:46 | 52.10631 | 10.31924 | 32666 ft | 442 kts | 188° |
| 2026-04-18 08:46 | 52.07564 | 10.31517 | 33023 ft | 441 kts | 188° |
| 2026-04-18 08:47 | 52.04506 | 10.31120 | 33360 ft | 441 kts | 188° |
| 2026-04-18 08:47 | 52.01451 | 10.30726 | 33711 ft | 440 kts | 188° |
| 2026-04-18 08:47 | 51.98407 | 10.30333 | 34073 ft | 439 kts | 188° |
| 2026-04-18 08:47 | 51.95369 | 10.29937 | 34394 ft | 438 kts | 188° |
| 2026-04-18 08:48 | 51.92333 | 10.29542 | 34683 ft | 437 kts | 188° |
| 2026-04-18 08:48 | 51.89300 | 10.29147 | 34869 ft | 439 kts | 188° |
| 2026-04-18 08:48 | 51.86252 | 10.28749 | 35070 ft | 440 kts | 188° |
| 2026-04-18 08:48 | 51.83194 | 10.28348 | 35306 ft | 441 kts | 188° |
| 2026-04-18 08:49 | 51.80139 | 10.27947 | 35562 ft | 441 kts | 188° |
| 2026-04-18 08:49 | 51.77082 | 10.27547 | 35815 ft | 440 kts | 188° |
| 2026-04-18 08:49 | 51.74030 | 10.27150 | 36063 ft | 440 kts | 188° |
| 2026-04-18 08:49 | 51.70946 | 10.26751 | 35500 ft | 448 kts | 188° |
| 2026-04-18 08:50 | 51.67834 | 10.26351 | 34808 ft | 448 kts | 188° |
| 2026-04-18 08:50 | 51.64733 | 10.25954 | 34127 ft | 447 kts | 188° |
| 2026-04-18 08:50 | 51.61627 | 10.25556 | 33355 ft | 448 kts | 188° |
| 2026-04-18 08:50 | 51.58562 | 10.25161 | 32608 ft | 449 kts | 188° |
| 2026-04-18 08:51 | 51.55440 | 10.24759 | 31879 ft | 451 kts | 188° |
| 2026-04-18 08:51 | 51.52303 | 10.24358 | 31168 ft | 453 kts | 188° |
| 2026-04-18 08:51 | 51.49148 | 10.23954 | 30481 ft | 455 kts | 187° |
| 2026-04-18 08:51 | 51.45984 | 10.23547 | 29721 ft | 457 kts | 187° |
| 2026-04-18 08:52 | 51.42803 | 10.23138 | 28936 ft | 460 kts | 187° |
| 2026-04-18 08:52 | 51.39609 | 10.22728 | 28173 ft | 462 kts | 187° |
| 2026-04-18 08:52 | 51.36403 | 10.22318 | 27429 ft | 464 kts | 187° |
| 2026-04-18 08:52 | 51.33175 | 10.21918 | 26690 ft | 466 kts | 186° |
| 2026-04-18 08:53 | 51.29926 | 10.21655 | 25984 ft | 467 kts | 184° |
| 2026-04-18 08:53 | 51.26688 | 10.21553 | 25298 ft | 464 kts | 182° |
| 2026-04-18 08:53 | 51.23472 | 10.21548 | 24632 ft | 461 kts | 182° |
| 2026-04-18 08:53 | 51.20284 | 10.21577 | 23974 ft | 457 kts | 182° |
| 2026-04-18 08:54 | 51.17123 | 10.21596 | 23244 ft | 451 kts | 182° |
| 2026-04-18 08:54 | 51.13998 | 10.21586 | 22488 ft | 447 kts | 182° |
| 2026-04-18 08:54 | 51.10902 | 10.21544 | 21742 ft | 443 kts | 183° |
| 2026-04-18 08:54 | 51.07835 | 10.21479 | 21026 ft | 439 kts | 183° |
| 2026-04-18 08:55 | 51.04795 | 10.21406 | 20325 ft | 436 kts | 183° |
| 2026-04-18 08:55 | 51.01774 | 10.21336 | 19639 ft | 432 kts | 183° |
| 2026-04-18 08:55 | 50.98780 | 10.21268 | 18973 ft | 429 kts | 183° |
| 2026-04-18 08:55 | 50.95803 | 10.21211 | 18289 ft | 426 kts | 183° |
| 2026-04-18 08:56 | 50.92854 | 10.21161 | 17538 ft | 423 kts | 182° |
| 2026-04-18 08:56 | 50.89921 | 10.21115 | 16807 ft | 420 kts | 182° |
| 2026-04-18 08:56 | 50.87009 | 10.21026 | 16082 ft | 416 kts | 186° |
| 2026-04-18 08:56 | 50.84214 | 10.20073 | 15381 ft | 409 kts | 202° |
| 2026-04-18 08:57 | 50.79448 | 10.15469 | 14028 ft | 399 kts | 223° |
| 2026-04-18 08:57 | 50.77521 | 10.12356 | 13284 ft | 395 kts | 231° |
| 2026-04-18 08:57 | 50.75945 | 10.08845 | 12547 ft | 390 kts | 240° |
| 2026-04-18 08:58 | 50.74686 | 10.05075 | 11828 ft | 387 kts | 243° |
| 2026-04-18 08:58 | 50.73474 | 10.01317 | 11323 ft | 379 kts | 243° |
| 2026-04-18 08:58 | 50.72308 | 9.97679 | 11158 ft | 362 kts | 243° |
| 2026-04-18 08:58 | 50.71211 | 9.94246 | 11142 ft | 342 kts | 243° |
| 2026-04-18 08:59 | 50.70056 | 9.91140 | 11058 ft | 326 kts | 232° |
| 2026-04-18 08:59 | 50.68439 | 9.88737 | 10913 ft | 315 kts | 217° |
| 2026-04-18 08:59 | 50.66687 | 9.86756 | 10758 ft | 304 kts | 216° |
| 2026-04-18 08:59 | 50.64988 | 9.84861 | 10618 ft | 294 kts | 216° |
| 2026-04-18 09:00 | 50.63338 | 9.83032 | 10473 ft | 286 kts | 216° |
| 2026-04-18 09:00 | 50.61720 | 9.81243 | 10328 ft | 283 kts | 216° |
| 2026-04-18 09:00 | 50.60119 | 9.79471 | 10190 ft | 281 kts | 216° |
| 2026-04-18 09:00 | 50.58521 | 9.77693 | 10033 ft | 280 kts | 217° |
| 2026-04-18 09:01 | 50.56929 | 9.75917 | 9872 ft | 280 kts | 216° |
| 2026-04-18 09:01 | 50.55344 | 9.74152 | 9705 ft | 279 kts | 216° |
| 2026-04-18 09:01 | 50.53758 | 9.72394 | 9563 ft | 278 kts | 216° |
| 2026-04-18 09:01 | 50.52175 | 9.70639 | 9399 ft | 278 kts | 216° |
| 2026-04-18 09:02 | 50.50598 | 9.68895 | 9238 ft | 277 kts | 216° |
| 2026-04-18 09:02 | 50.49028 | 9.67159 | 9078 ft | 276 kts | 216° |
| 2026-04-18 09:02 | 50.47460 | 9.65426 | 8910 ft | 275 kts | 216° |
| 2026-04-18 09:02 | 50.45895 | 9.63696 | 8759 ft | 275 kts | 216° |
| 2026-04-18 09:03 | 50.44329 | 9.61966 | 8591 ft | 275 kts | 216° |
| 2026-04-18 09:03 | 50.42768 | 9.60243 | 8451 ft | 274 kts | 216° |
| 2026-04-18 09:03 | 50.41210 | 9.58528 | 8296 ft | 273 kts | 216° |
| 2026-04-18 09:03 | 50.39659 | 9.56818 | 8143 ft | 272 kts | 216° |
| 2026-04-18 09:04 | 50.38108 | 9.55114 | 7997 ft | 272 kts | 216° |
| 2026-04-18 09:04 | 50.36561 | 9.53418 | 7840 ft | 271 kts | 215° |
| 2026-04-18 09:04 | 50.35019 | 9.51731 | 7687 ft | 270 kts | 215° |
| 2026-04-18 09:04 | 50.33505 | 9.50073 | 7531 ft | 269 kts | 215° |
| 2026-04-18 09:05 | 50.31952 | 9.48372 | 7388 ft | 268 kts | 215° |
| 2026-04-18 09:05 | 50.30424 | 9.46698 | 7239 ft | 268 kts | 215° |
| 2026-04-18 09:05 | 50.28903 | 9.45033 | 7091 ft | 267 kts | 215° |
| 2026-04-18 09:05 | 50.27403 | 9.43325 | 6945 ft | 266 kts | 222° |
| 2026-04-18 09:06 | 50.26309 | 9.41023 | 6801 ft | 266 kts | 245° |
| 2026-04-18 09:06 | 50.25607 | 9.38349 | 6705 ft | 267 kts | 247° |
| 2026-04-18 09:06 | 50.24914 | 9.35654 | 6607 ft | 267 kts | 247° |
| 2026-04-18 09:06 | 50.24233 | 9.33001 | 6505 ft | 266 kts | 247° |
| 2026-04-18 09:07 | 50.23543 | 9.30313 | 6401 ft | 266 kts | 247° |
| 2026-04-18 09:07 | 50.22855 | 9.27633 | 6305 ft | 266 kts | 247° |
| 2026-04-18 09:07 | 50.22168 | 9.24956 | 6197 ft | 266 kts | 247° |
| 2026-04-18 09:07 | 50.21481 | 9.22279 | 6093 ft | 265 kts | 247° |
| 2026-04-18 09:08 | 50.20795 | 9.19610 | 6005 ft | 265 kts | 247° |
| 2026-04-18 09:08 | 50.20122 | 9.16997 | 5901 ft | 253 kts | 247° |
| 2026-04-18 09:08 | 50.19480 | 9.14511 | 5787 ft | 241 kts | 247° |
| 2026-04-18 09:08 | 50.18863 | 9.12132 | 5679 ft | 232 kts | 247° |
| 2026-04-18 09:09 | 50.18260 | 9.09811 | 5585 ft | 231 kts | 247° |
| 2026-04-18 09:09 | 50.17658 | 9.07494 | 5477 ft | 230 kts | 247° |
| 2026-04-18 09:09 | 50.17057 | 9.05183 | 5376 ft | 230 kts | 247° |
| 2026-04-18 09:09 | 50.16457 | 9.02875 | 5276 ft | 230 kts | 247° |
| 2026-04-18 09:10 | 50.15858 | 9.00573 | 5179 ft | 229 kts | 247° |
| 2026-04-18 09:10 | 50.15258 | 8.98268 | 5072 ft | 229 kts | 246° |
| 2026-04-18 09:10 | 50.14667 | 8.95973 | 5003 ft | 228 kts | 248° |
| 2026-04-18 09:10 | 50.14109 | 8.93650 | 5005 ft | 229 kts | 249° |
| 2026-04-18 09:11 | 50.13563 | 8.91320 | 5008 ft | 228 kts | 249° |
| 2026-04-18 09:11 | 50.13022 | 8.89016 | 5011 ft | 222 kts | 249° |
| 2026-04-18 09:11 | 50.12503 | 8.86802 | 4980 ft | 212 kts | 249° |
| 2026-04-18 09:11 | 50.11999 | 8.84663 | 4793 ft | 211 kts | 249° |
| 2026-04-18 09:12 | 50.11490 | 8.82499 | 4498 ft | 213 kts | 249° |
| 2026-04-18 09:12 | 50.10975 | 8.80315 | 4201 ft | 217 kts | 250° |
| 2026-04-18 09:12 | 50.10458 | 8.78126 | 3890 ft | 212 kts | 250° |
| 2026-04-18 09:12 | 50.09960 | 8.76019 | 3598 ft | 204 kts | 250° |
| 2026-04-18 09:13 | 50.09480 | 8.73989 | 3308 ft | 196 kts | 251° |
| 2026-04-18 09:13 | 50.09013 | 8.72017 | 3030 ft | 192 kts | 250° |
| 2026-04-18 09:13 | 50.08554 | 8.70076 | 2763 ft | 191 kts | 251° |
| 2026-04-18 09:13 | 50.08095 | 8.68143 | 2496 ft | 190 kts | 251° |
| 2026-04-18 09:14 | 50.07638 | 8.66213 | 2223 ft | 189 kts | 251° |
| 2026-04-18 09:14 | 50.07195 | 8.64350 | 1983 ft | 178 kts | 251° |
| 2026-04-18 09:14 | 50.06786 | 8.62633 | 1721 ft | 161 kts | 251° |
| 2026-04-18 09:14 | 50.06413 | 8.61064 | 1478 ft | 149 kts | 251° |
| 2026-04-18 09:15 | 50.06061 | 8.59586 | 1271 ft | 144 kts | 252° |
| 2026-04-18 09:15 | 50.05709 | 8.58117 | 1072 ft | 144 kts | 251° |
| 2026-04-18 09:15 | 50.05365 | 8.56667 | 867 ft | 144 kts | 251° |
| 2026-04-18 09:15 | 50.05015 | 8.55190 | 678 ft | 146 kts | 251° |
| 2026-04-18 09:16 | 50.04659 | 8.53700 | 454 ft | 148 kts | 251° |
| 2026-04-18 09:16 | 50.04317 | 8.52258 | 346 ft | 132 kts | 250° |
| 2026-04-18 09:16 | 50.04101 | 8.51355 | 329 ft | 46 kts | 250° |
| 2026-04-18 09:16 | 50.03988 | 8.51040 | 326 ft | 30 kts | 225° |
| 2026-04-18 09:17 | 50.03868 | 8.50863 | 325 ft | 16 kts | 220° |
| 2026-04-18 09:17 | 50.03792 | 8.50858 | 332 ft | 9 kts | 133° |
| 2026-04-18 09:17 | 50.03781 | 8.50924 | 332 ft | 5 kts | 68° |
| 2026-04-18 09:17 | 50.03811 | 8.51048 | 333 ft | 23 kts | 70° |
| 2026-04-18 09:18 | 50.03876 | 8.51319 | 334 ft | 28 kts | 69° |
| 2026-04-18 09:18 | 50.03945 | 8.51607 | 334 ft | 29 kts | 69° |
| 2026-04-18 09:18 | 50.04018 | 8.51897 | 337 ft | 29 kts | 68° |
| 2026-04-18 09:18 | 50.04085 | 8.52188 | 348 ft | 28 kts | 71° |
| 2026-04-18 09:19 | 50.04151 | 8.52472 | 348 ft | 28 kts | 70° |
| 2026-04-18 09:19 | 50.04218 | 8.52748 | 358 ft | 27 kts | 69° |
| 2026-04-18 09:19 | 50.04284 | 8.53020 | 361 ft | 27 kts | 70° |
| 2026-04-18 09:19 | 50.04345 | 8.53280 | 368 ft | 24 kts | 69° |
| 2026-04-18 09:20 | 50.04397 | 8.53545 | 375 ft | 25 kts | 83° |
| 2026-04-18 09:20 | 50.04417 | 8.53826 | 375 ft | 27 kts | 84° |
| 2026-04-18 09:20 | 50.04436 | 8.54123 | 375 ft | 28 kts | 84° |
| 2026-04-18 09:20 | 50.04455 | 8.54435 | 371 ft | 30 kts | 89° |
| 2026-04-18 09:21 | 50.04420 | 8.54625 | 366 ft | 16 kts | 112° |
| 2026-04-18 09:21 | 50.04366 | 8.54719 | 360 ft | 19 kts | 142° |
| 2026-04-18 09:21 | 50.04237 | 8.54814 | 358 ft | 18 kts | 160° |
| 2026-04-18 09:21 | 50.04117 | 8.54883 | 355 ft | 15 kts | 159° |
| 2026-04-18 09:22 | 50.04051 | 8.54923 | 353 ft | 15 kts | 153° |
| 2026-04-18 09:22 | 50.04025 | 8.55056 | 361 ft | 14 kts | 66° |
| 2026-04-18 09:22 | 50.04064 | 8.55207 | 355 ft | 16 kts | 69° |
| 2026-04-18 09:22 | 50.04104 | 8.55377 | 359 ft | 18 kts | 70° |
| 2026-04-18 09:23 | 50.04149 | 8.55571 | 354 ft | 20 kts | 69° |
| 2026-04-18 09:23 | 50.04198 | 8.55767 | 361 ft | 20 kts | 69° |
| 2026-04-18 09:23 | 50.04256 | 8.55946 | 354 ft | 15 kts | 30° |
| 2026-04-18 09:23 | 50.04355 | 8.55931 | 358 ft | 15 kts | 350° |
| 2026-04-18 09:24 | 50.04428 | 8.56020 | 361 ft | 15 kts | 67° |
| 2026-04-18 09:24 | 50.04452 | 8.56114 | 361 ft | 8 kts | 69° |
| 2026-04-18 09:24 | 50.04473 | 8.56201 | 362 ft | 9 kts | 63° |
| 2026-04-18 09:24 | 50.04514 | 8.56209 | 363 ft | 5 kts | 342° |
| 2026-04-18 09:25 | 50.04530 | 8.56211 | 361 ft | 2 kts | 28° |
| 2026-04-18 09:25 | 50.04540 | 8.56223 | 363 ft | 0 kts | 38° |